Time;durP1;ratioP1;P1;durP2;ratioP2;P2;SDS_P1;SDS_P2;PMS_P1;PMS_P2;Temp;Humidity;BMP_temperature;BMP_pressure;BME280_temperature;BME280_humidity;BME280_pressure;Samples;Min_cycle;Max_cycle;Signal;HPM_P1;HPM_P2
2023/10/04 00:00:20;;;;;;;7.53;3.87;;;;;;;12.50;88.04;101525.66;5036775;28;20711;-75
2023/10/04 00:02:53;;;;;;;8.93;3.57;;;;;;;12.49;87.72;101529.38;5037328;28;20301;-75
2023/10/04 00:05:24;;;;;;;8.60;3.80;;;;;;;12.50;88.22;101525.66;5036659;28;20322;-75
2023/10/04 00:07:55;;;;;;;10.07;4.43;;;;;;;12.43;87.83;101527.28;5037053;28;20201;-75
2023/10/04 00:10:24;;;;;;;8.83;3.97;;;;;;;12.40;88.68;101530.28;5036907;28;20219;-75
2023/10/04 00:12:54;;;;;;;9.27;4.03;;;;;;;12.45;87.48;101533.38;5036925;28;20207;-75
2023/10/04 00:15:25;;;;;;;8.57;4.47;;;;;;;12.38;88.71;101534.97;5036769;28;20234;-75
2023/10/04 00:17:56;;;;;;;11.73;4.60;;;;;;;12.36;88.17;101531.59;5036841;28;20191;-75
2023/10/04 00:20:31;;;;;;;11.13;4.30;;;;;;;12.33;88.80;101529.19;5036825;28;20573;-75
2023/10/04 00:23:02;;;;;;;7.67;3.90;;;;;;;12.34;88.10;101530.03;5036351;28;20683;-75
2023/10/04 00:25:31;;;;;;;9.27;4.80;;;;;;;12.31;88.60;101527.66;5036681;28;20194;-75
2023/10/04 00:27:59;;;;;;;12.67;4.47;;;;;;;12.28;88.84;101520.78;5036673;28;20215;-75
2023/10/04 00:30:29;;;;;;;8.93;4.60;;;;;;;12.32;88.07;101526.69;5036185;28;20317;-75
2023/10/04 00:33:02;;;;;;;9.37;4.60;;;;;;;12.34;88.06;101524.69;5036523;28;20213;-75
2023/10/04 00:35:31;;;;;;;7.27;4.80;;;;;;;12.33;88.24;101531.06;5037044;28;20213;-75
2023/10/04 00:38:00;;;;;;;8.30;4.73;;;;;;;12.38;88.51;101526.06;5036411;28;20266;-75
2023/10/04 00:40:31;;;;;;;13.77;4.77;;;;;;;12.35;87.76;101531.75;5036351;28;20211;-75
2023/10/04 00:43:02;;;;;;;10.93;5.00;;;;;;;12.34;88.18;101533.56;5036332;28;20292;-75
2023/10/04 00:45:32;;;;;;;9.33;4.90;;;;;;;12.33;87.52;101534.56;5036315;28;20213;-75
2023/10/04 00:48:13;;;;;;;9.07;5.07;;;;;;;12.33;87.94;101533.75;5036245;28;20215;-75
2023/10/04 00:50:42;;;;;;;9.87;5.30;;;;;;;12.34;87.53;101535.41;5035843;28;20254;-75
2023/10/04 00:53:13;;;;;;;12.43;4.63;;;;;;;12.35;87.15;101532.59;5036057;28;20215;-75
2023/10/04 00:55:44;;;;;;;9.93;5.23;;;;;;;12.32;86.68;101527.53;5035805;28;20544;-75
2023/10/04 00:58:14;;;;;;;9.60;4.73;;;;;;;12.35;87.36;101537.97;5035791;28;20210;-75
2023/10/04 01:00:45;;;;;;;8.60;4.73;;;;;;;12.39;86.51;101527.75;5036048;28;20237;-75
2023/10/04 01:03:16;;;;;;;8.53;4.83;;;;;;;12.34;86.83;101536.25;5035901;28;20294;-75
2023/10/04 01:05:47;;;;;;;10.63;5.20;;;;;;;12.35;86.03;101529.91;5035640;28;20646;-75
2023/10/04 01:08:18;;;;;;;10.27;5.27;;;;;;;12.37;86.58;101530.59;5035579;28;20218;-75
2023/10/04 01:10:47;;;;;;;8.90;4.90;;;;;;;12.37;86.33;101529.72;5036329;28;20212;-75
2023/10/04 01:13:18;;;;;;;9.40;5.83;;;;;;;12.34;86.39;101519.31;5035697;28;20260;-75
2023/10/04 01:15:49;;;;;;;10.40;5.60;;;;;;;12.32;86.09;101521.31;5036041;28;20286;-75
2023/10/04 01:18:19;;;;;;;15.83;5.90;;;;;;;12.32;86.23;101527.53;5035677;28;20309;-75
2023/10/04 01:20:48;;;;;;;10.30;5.37;;;;;;;12.32;86.29;101527.53;5035307;28;20678;-75
2023/10/04 01:23:18;;;;;;;8.53;5.23;;;;;;;12.35;86.17;101532.59;5035051;28;20638;-75
2023/10/04 01:25:48;;;;;;;9.73;4.93;;;;;;;12.34;86.41;101530.03;5035293;28;20707;-75
2023/10/04 01:28:18;;;;;;;11.23;5.37;;;;;;;12.32;86.46;101522.16;5035523;28;20233;-75
2023/10/04 01:30:49;;;;;;;9.00;5.13;;;;;;;12.30;85.94;101523.28;5035115;28;20231;-75
2023/10/04 01:33:18;;;;;;;9.57;4.37;;;;;;;12.34;85.80;101530.88;5035278;28;20234;-75
2023/10/04 01:35:50;;;;;;;11.87;4.83;;;;;;;12.33;86.30;101531.88;5035388;28;20207;-75
2023/10/04 01:38:24;;;;;;;8.57;4.90;;;;;;;12.31;86.13;101535.72;5035383;28;20191;-75
2023/10/04 01:40:54;;;;;;;8.73;4.60;;;;;;;12.28;86.10;101531.50;5035317;28;20304;-75
2023/10/04 01:43:24;;;;;;;7.70;4.30;;;;;;;12.28;86.21;101542.25;5035190;28;20305;-75
2023/10/04 01:45:57;;;;;;;8.57;4.00;;;;;;;12.28;86.29;101542.25;5035282;28;20195;-75
2023/10/04 01:48:30;;;;;;;10.27;4.70;;;;;;;12.24;86.16;101543.53;5035231;28;20202;-75
2023/10/04 01:51:02;;;;;;;8.50;4.10;;;;;;;12.29;86.01;101545.78;5035012;28;20230;-75
2023/10/04 01:53:34;;;;;;;8.20;4.30;;;;;;;12.30;85.67;101545.63;5035045;28;20226;-75
2023/10/04 01:56:05;;;;;;;8.17;4.00;;;;;;;12.33;85.28;101550.69;5035042;28;20195;-75
2023/10/04 01:58:34;;;;;;;9.67;3.87;;;;;;;12.30;85.49;101553.66;5034986;28;20309;-75
2023/10/04 02:01:03;;;;;;;7.10;3.80;;;;;;;12.32;85.90;101551.69;5034935;28;20238;-75
2023/10/04 02:03:31;;;;;;;8.57;4.13;;;;;;;12.36;85.51;101555.78;5034492;28;20758;-75
2023/10/04 02:06:01;;;;;;;9.30;4.13;;;;;;;12.34;85.53;101557.75;5034834;28;20242;-75
2023/10/04 02:08:31;;;;;;;8.50;3.90;;;;;;;12.34;85.71;101560.44;5034278;28;20210;-75
2023/10/04 02:11:04;;;;;;;8.67;4.00;;;;;;;12.38;86.18;101551.09;5035172;28;20246;-74
2023/10/04 02:13:35;;;;;;;7.30;3.77;;;;;;;12.35;85.33;101548.69;5035243;28;20262;-75
2023/10/04 02:16:05;;;;;;;8.47;4.00;;;;;;;12.39;85.54;101555.47;5039436;28;20190;-74
2023/10/04 02:18:34;;;;;;;7.90;3.87;;;;;;;12.38;85.68;101548.41;5039426;28;20211;-75
2023/10/04 02:21:03;;;;;;;7.73;4.07;;;;;;;12.37;85.69;101549.38;5053056;28;20206;-74
2023/10/04 02:23:32;;;;;;;10.23;3.60;;;;;;;12.39;84.93;101549.25;5055598;28;20264;-74
2023/10/04 02:26:04;;;;;;;9.57;3.90;;;;;;;12.39;85.94;101555.47;5035041;28;20657;-75
2023/10/04 02:28:33;;;;;;;7.03;3.97;;;;;;;12.41;85.26;101553.47;5034428;28;20219;-75
2023/10/04 02:31:02;;;;;;;6.57;3.70;;;;;;;12.43;84.85;101551.44;5034239;28;20348;-75
2023/10/04 02:33:34;;;;;;;7.53;3.70;;;;;;;12.44;85.21;101552.31;5034243;28;20318;-74
2023/10/04 02:36:04;;;;;;;7.33;3.63;;;;;;;12.46;85.12;101559.22;5034254;28;20194;-74
2023/10/04 02:38:34;;;;;;;9.37;3.70;;;;;;;12.46;85.64;101556.53;5034145;28;20210;-75
2023/10/04 02:41:06;;;;;;;7.03;3.63;;;;;;;12.47;85.14;101563.59;5033894;28;20681;-75
2023/10/04 02:43:36;;;;;;;7.77;3.27;;;;;;;12.47;85.56;101555.53;5034028;28;20237;-75
2023/10/04 02:46:05;;;;;;;13.60;4.10;;;;;;;12.47;85.00;101560.91;5034029;28;20211;-75
2023/10/04 02:48:35;;;;;;;7.73;3.60;;;;;;;12.47;85.29;101563.59;5033996;28;20257;-75
2023/10/04 02:51:05;;;;;;;10.03;3.73;;;;;;;12.46;84.94;101561.06;5033933;28;20261;-75
2023/10/04 02:53:37;;;;;;;8.60;4.00;;;;;;;12.47;84.78;101563.59;5033825;28;20653;-74
2023/10/04 02:56:09;;;;;;;8.57;3.53;;;;;;;12.51;84.88;101574.88;5033901;28;20195;-75
2023/10/04 02:58:38;;;;;;;8.77;3.70;;;;;;;12.50;84.82;101571.34;5033873;28;20191;-75
2023/10/04 03:01:08;;;;;;;8.60;3.70;;;;;;;12.51;84.64;101570.34;5033821;28;20261;-75
2023/10/04 03:03:37;;;;;;;8.53;3.97;;;;;;;12.52;84.91;101576.56;5033669;28;20238;-75
2023/10/04 03:06:06;;;;;;;11.40;3.77;;;;;;;12.52;85.08;101574.72;5033698;28;20301;-75
2023/10/04 03:08:35;;;;;;;10.20;3.87;;;;;;;12.54;84.60;101574.56;5033397;28;20795;-74
2023/10/04 03:11:03;;;;;;;7.80;3.87;;;;;;;12.54;84.97;101579.94;5033283;28;20222;-75
2023/10/04 03:13:34;;;;;;;11.47;3.83;;;;;;;12.54;85.13;101580.78;5033553;28;20222;-75
2023/10/04 03:16:03;;;;;;;10.47;3.90;;;;;;;12.53;85.54;101581.78;5033870;28;20684;-75
2023/10/04 03:18:33;;;;;;;7.27;3.70;;;;;;;12.55;85.66;101587.84;5033274;28;20206;-75
2023/10/04 03:21:13;;;;;;;7.43;3.70;;;;;;;12.55;85.11;101585.16;5032813;28;20208;-75
2023/10/04 03:23:42;;;;;;;9.43;3.77;;;;;;;12.57;85.67;101591.22;5033138;28;20778;-75
2023/10/04 03:26:12;;;;;;;8.73;3.63;;;;;;;12.56;85.06;101594.91;5033648;28;20210;-75
2023/10/04 03:28:43;;;;;;;8.03;3.87;;;;;;;12.57;84.92;101593.06;5033263;28;20540;-75
2023/10/04 03:31:13;;;;;;;10.23;4.13;;;;;;;12.58;85.67;101592.06;5033381;28;20308;-75
2023/10/04 03:33:43;;;;;;;8.67;4.20;;;;;;;12.58;85.56;101600.97;5033416;28;20226;-75
2023/10/04 03:36:15;;;;;;;8.80;3.77;;;;;;;12.58;84.63;101600.97;5033425;28;20640;-75
2023/10/04 03:38:43;;;;;;;7.10;4.10;;;;;;;12.58;84.97;101592.06;5033468;28;20195;-75
2023/10/04 03:41:12;;;;;;;9.70;4.33;;;;;;;12.56;85.25;101597.59;5033352;28;20210;-75
2023/10/04 03:43:42;;;;;;;9.57;4.20;;;;;;;12.54;85.74;101596.03;5033256;28;20227;-75
2023/10/04 03:46:17;;;;;;;10.40;4.17;;;;;;;12.54;85.88;101596.91;5033338;28;20302;-75
2023/10/04 03:48:47;;;;;;;10.53;4.30;;;;;;;12.52;85.60;101588.16;5033351;28;20191;-75
2023/10/04 03:51:19;;;;;;;9.27;4.27;;;;;;;12.52;85.52;101598.06;5033132;28;20227;-75
2023/10/04 03:53:49;;;;;;;10.77;4.33;;;;;;;12.52;85.50;101609.66;5033140;28;20254;-75
2023/10/04 03:56:18;;;;;;;8.27;4.00;;;;;;;12.51;86.21;101596.34;5033210;28;20244;-75
2023/10/04 03:58:48;;;;;;;9.37;4.30;;;;;;;12.52;86.25;101598.91;5033241;28;20257;-75
2023/10/04 04:01:17;;;;;;;8.77;4.47;;;;;;;12.51;86.22;101599.88;5032844;28;20585;-75
2023/10/04 04:03:48;;;;;;;10.87;4.53;;;;;;;12.51;86.16;101607.94;5033025;28;20223;-75
2023/10/04 04:06:17;;;;;;;9.60;4.33;;;;;;;12.52;85.26;101598.91;5032855;28;20202;-75
2023/10/04 04:08:47;;;;;;;10.63;4.43;;;;;;;12.51;85.88;101605.25;5032884;28;20240;-75
2023/10/04 04:11:17;;;;;;;7.60;4.17;;;;;;;12.53;85.29;101610.50;5032969;28;20230;-75
2023/10/04 04:13:47;;;;;;;13.07;4.60;;;;;;;12.51;85.83;101604.41;5032988;28;20254;-75
2023/10/04 04:16:18;;;;;;;7.73;4.37;;;;;;;12.50;85.65;101602.75;5033019;28;20246;-75
2023/10/04 04:18:51;;;;;;;11.20;4.30;;;;;;;12.48;85.40;101593.97;5033015;28;20195;-74
2023/10/04 04:21:20;;;;;;;9.57;4.30;;;;;;;12.49;85.48;101593.84;5033023;28;20191;-74
2023/10/04 04:23:49;;;;;;;8.67;3.77;;;;;;;12.49;85.70;101593.00;5032431;28;20799;-75
2023/10/04 04:26:23;;;;;;;9.73;4.20;;;;;;;12.50;85.09;101581.25;5032919;28;20211;-75
2023/10/04 04:28:53;;;;;;;9.07;3.90;;;;;;;12.49;85.51;101583.09;5032844;28;20245;-75
2023/10/04 04:31:22;;;;;;;7.53;4.07;;;;;;;12.49;85.24;101583.09;5032482;28;20306;-75
2023/10/04 04:33:53;;;;;;;6.03;3.77;;;;;;;12.49;85.10;101588.47;5036343;28;20317;-74
2023/10/04 04:36:26;;;;;;;8.40;3.93;;;;;;;12.49;85.24;101588.47;5035454;28;20629;-75
2023/10/04 04:38:55;;;;;;;10.00;4.50;;;;;;;12.48;85.38;101592.13;5035423;28;20187;-75
2023/10/04 04:41:25;;;;;;;9.67;4.40;;;;;;;12.46;85.10;101588.78;5036337;28;20211;-75
2023/10/04 04:43:55;;;;;;;12.00;4.33;;;;;;;12.45;85.54;101581.69;5035488;28;20284;-75
2023/10/04 04:46:24;;;;;;;9.90;4.30;;;;;;;12.46;85.99;101578.03;5036323;28;20240;-75
2023/10/04 04:48:54;;;;;;;9.20;4.40;;;;;;;12.45;85.44;101586.22;5036281;28;20608;-74
2023/10/04 04:51:23;;;;;;;9.00;4.47;;;;;;;12.45;85.97;101584.38;5036173;28;20211;-75
2023/10/04 04:53:53;;;;;;;9.63;4.33;;;;;;;12.44;86.30;101593.44;5036046;28;20231;-75
2023/10/04 04:56:23;;;;;;;12.20;4.77;;;;;;;12.43;86.46;101583.69;5035808;28;20207;-74
2023/10/04 04:58:56;;;;;;;13.07;4.50;;;;;;;12.44;86.25;101596.13;5036091;28;20203;-74
2023/10/04 05:01:25;;;;;;;10.17;4.70;;;;;;;12.41;86.49;101596.44;5039308;28;20653;-74
2023/10/04 05:03:54;;;;;;;8.53;4.47;;;;;;;12.42;86.42;101602.66;5046827;28;20218;-74
2023/10/04 05:06:23;;;;;;;7.73;4.30;;;;;;;12.38;86.73;101610.16;5060239;28;20187;-73
2023/10/04 05:08:54;;;;;;;9.70;4.97;;;;;;;12.38;85.92;101618.22;5059871;28;20202;-74
2023/10/04 05:11:23;;;;;;;8.67;4.50;;;;;;;12.39;86.74;101625.28;5059767;28;22053;-75
2023/10/04 05:13:53;;;;;;;8.00;4.03;;;;;;;12.38;86.96;101623.59;5057896;28;20230;-75
2023/10/04 05:16:22;;;;;;;11.37;4.53;;;;;;;12.41;86.93;101625.13;5037389;28;20210;-75
2023/10/04 05:18:53;;;;;;;8.20;3.93;;;;;;;12.38;86.84;101628.97;5035784;28;20210;-75
2023/10/04 05:21:22;;;;;;;10.33;4.30;;;;;;;12.35;86.38;101634.63;5035734;28;20199;-75
2023/10/04 05:23:55;;;;;;;11.67;4.50;;;;;;;12.37;86.74;101643.38;5035401;28;20266;-75
2023/10/04 05:26:23;;;;;;;12.17;4.23;;;;;;;12.38;87.06;101649.59;5035698;28;20274;-75
2023/10/04 05:28:53;;;;;;;11.67;4.57;;;;;;;12.38;86.85;101650.44;5035663;28;20207;-76
2023/10/04 05:31:22;;;;;;;10.93;3.90;;;;;;;12.35;87.17;101650.75;5035508;28;20213;-76
2023/10/04 05:33:52;;;;;;;9.30;4.40;;;;;;;12.33;86.98;101660.78;5035131;28;20229;-76
2023/10/04 05:36:22;;;;;;;13.60;4.60;;;;;;;12.31;86.89;101654.72;5035428;28;20245;-76
2023/10/04 05:38:51;;;;;;;11.83;4.50;;;;;;;12.33;87.05;101660.78;5035370;28;20289;-76
2023/10/04 05:41:20;;;;;;;13.10;4.60;;;;;;;12.33;87.66;101655.41;5034925;28;20624;-76
2023/10/04 05:43:49;;;;;;;12.90;4.90;;;;;;;12.29;87.32;101667.47;5034006;28;20313;-76
2023/10/04 05:46:18;;;;;;;11.87;4.90;;;;;;;12.31;87.63;101664.59;5034871;28;20704;-76
2023/10/04 05:48:48;;;;;;;13.50;4.87;;;;;;;12.26;88.16;101667.72;5034853;28;20818;-76
2023/10/04 05:51:24;;;;;;;15.33;5.33;;;;;;;12.23;87.82;101662.66;5035081;28;20237;-76
2023/10/04 05:53:53;;;;;;;11.30;5.00;;;;;;;12.23;87.71;101670.72;5035038;28;20233;-76
2023/10/04 05:56:25;;;;;;;13.17;5.23;;;;;;;12.19;88.10;101666.66;5035022;28;20633;-76
2023/10/04 05:58:54;;;;;;;13.37;5.50;;;;;;;12.16;88.77;101661.56;5035038;28;20195;-75
2023/10/04 06:01:24;;;;;;;14.67;5.63;;;;;;;12.16;88.90;101665.09;5034552;28;20210;-75
2023/10/04 06:03:53;;;;;;;11.80;5.23;;;;;;;12.13;88.29;101672.59;5035147;28;20281;-75
2023/10/04 06:06:23;;;;;;;15.67;5.77;;;;;;;12.16;88.67;101675.84;5034772;28;20202;-75
2023/10/04 06:08:54;;;;;;;14.10;6.57;;;;;;;12.13;88.27;101672.59;5034770;28;20211;-75
2023/10/04 06:11:26;;;;;;;17.93;5.83;;;;;;;12.11;88.80;101675.44;5034431;28;20554;-75
2023/10/04 06:13:55;;;;;;;14.83;5.90;;;;;;;12.06;89.24;101683.09;5034523;28;20324;-75
2023/10/04 06:16:23;;;;;;;13.43;5.73;;;;;;;12.08;89.21;101674.91;5034605;28;20285;-75
2023/10/04 06:18:52;;;;;;;12.67;5.53;;;;;;;12.11;88.78;101677.28;5034491;28;20225;-75
2023/10/04 06:21:24;;;;;;;15.93;6.40;;;;;;;12.08;89.61;101688.31;5034515;28;20203;-75
2023/10/04 06:23:53;;;;;;;18.77;6.13;;;;;;;12.04;89.22;101689.59;5034178;28;20238;-75
2023/10/04 06:26:21;;;;;;;14.40;5.73;;;;;;;12.06;89.39;101676.84;5034452;28;20289;-75
2023/10/04 06:28:50;;;;;;;15.97;7.00;;;;;;;12.02;89.70;101678.19;5034332;28;20297;-75
2023/10/04 06:31:19;;;;;;;20.93;6.63;;;;;;;12.07;88.92;101684.78;5034317;28;20211;-75
2023/10/04 06:33:53;;;;;;;18.13;6.33;;;;;;;12.04;89.45;101685.06;5034107;28;20249;-75
2023/10/04 06:36:25;;;;;;;16.17;7.20;;;;;;;12.03;89.55;101688.75;5034261;28;20214;-75
2023/10/04 06:38:53;;;;;;;21.90;7.70;;;;;;;12.02;89.83;101696.97;5033949;28;20649;-75
2023/10/04 06:41:25;;;;;;;16.07;7.17;;;;;;;12.03;90.08;101696.78;5034204;28;20257;-75
2023/10/04 06:43:56;;;;;;;14.40;6.50;;;;;;;12.03;90.35;101693.25;5034093;28;20309;-75
2023/10/04 06:46:24;;;;;;;18.00;6.63;;;;;;;12.06;90.04;101691.13;5034935;28;20273;-75
2023/10/04 06:48:54;;;;;;;18.17;6.50;;;;;;;12.09;90.24;101698.88;5034100;28;20623;-75
2023/10/04 06:51:24;;;;;;;11.93;5.90;;;;;;;12.13;89.91;101696.75;5033679;28;20580;-75
2023/10/04 06:53:52;;;;;;;17.07;6.03;;;;;;;12.14;90.11;101695.78;5033788;28;20227;-75
2023/10/04 06:56:21;;;;;;;13.97;6.00;;;;;;;12.19;89.13;101704.25;5033844;28;20202;-75
2023/10/04 06:58:50;;;;;;;9.27;5.50;;;;;;;12.23;89.57;101694.88;5033724;28;20661;-75
2023/10/04 07:01:19;;;;;;;12.23;6.17;;;;;;;12.28;89.14;101702.50;5033932;28;20301;-75
2023/10/04 07:03:47;;;;;;;10.20;5.20;;;;;;;12.33;89.28;101706.41;5033517;28;20765;-75
2023/10/04 07:06:16;;;;;;;12.23;5.23;;;;;;;12.37;89.41;101710.50;5033872;28;20569;-75
2023/10/04 07:08:46;;;;;;;9.37;4.53;;;;;;;12.42;88.96;101710.91;5033504;28;20211;-75
2023/10/04 07:11:14;;;;;;;14.70;5.63;;;;;;;12.46;88.11;101723.06;5033356;28;20658;-75
2023/10/04 07:13:43;;;;;;;10.87;4.93;;;;;;;12.49;88.26;101719.22;5033217;28;20357;-74
2023/10/04 07:16:12;;;;;;;10.33;4.50;;;;;;;12.52;88.65;101732.34;5033623;28;20207;-75
2023/10/04 07:18:41;;;;;;;9.37;4.83;;;;;;;12.57;87.53;101724.69;5033560;28;20211;-75
2023/10/04 07:21:10;;;;;;;10.90;4.70;;;;;;;12.59;88.46;101730.75;5033665;28;20257;-74
2023/10/04 07:23:39;;;;;;;10.63;5.10;;;;;;;12.61;88.11;101726.94;5033293;28;20234;-74
2023/10/04 07:26:12;;;;;;;11.43;4.57;;;;;;;12.65;88.15;101738.22;5033574;28;20191;-75
2023/10/04 07:28:41;;;;;;;9.93;4.20;;;;;;;12.68;87.27;101744.13;5033517;28;20210;-75
2023/10/04 07:31:10;;;;;;;14.67;4.13;;;;;;;12.73;86.71;101753.59;5033140;28;20257;-75
2023/10/04 07:33:39;;;;;;;10.20;4.80;;;;;;;12.77;87.21;101758.53;5033342;28;20238;-75
2023/10/04 07:36:08;;;;;;;10.73;4.83;;;;;;;12.83;87.41;101762.47;5033245;28;20607;-75
2023/10/04 07:38:36;;;;;;;11.23;4.60;;;;;;;12.87;87.26;101774.59;5033584;28;20209;-75
2023/10/04 07:41:05;;;;;;;11.20;4.30;;;;;;;12.97;86.85;101791.53;5033448;28;20235;-75
2023/10/04 07:43:37;;;;;;;12.57;4.10;;;;;;;12.97;86.16;101775.38;5033282;28;20223;-74
2023/10/04 07:46:05;;;;;;;11.73;4.17;;;;;;;13.04;86.99;101771.09;5033608;28;20233;-75
2023/10/04 07:48:35;;;;;;;15.93;4.27;;;;;;;13.09;85.35;101763.44;5033385;28;20731;-74
2023/10/04 07:51:04;;;;;;;11.47;4.13;;;;;;;13.14;85.29;101774.59;5033371;28;20221;-74
2023/10/04 07:53:33;;;;;;;12.63;4.40;;;;;;;13.18;85.00;101778.69;5033191;28;20317;-75
2023/10/04 07:56:01;;;;;;;13.83;4.83;;;;;;;13.23;85.09;101781.75;5033978;28;20605;-74
2023/10/04 07:58:30;;;;;;;12.87;4.37;;;;;;;13.26;85.95;101784.13;5033401;28;20204;-74
2023/10/04 08:00:59;;;;;;;12.87;4.80;;;;;;;13.28;85.15;101784.84;5033270;28;20239;-74
2023/10/04 08:03:29;;;;;;;13.37;4.20;;;;;;;13.31;85.29;101784.53;5033344;28;20728;-74
2023/10/04 08:05:58;;;;;;;15.33;4.23;;;;;;;13.34;84.84;101783.38;5033139;28;20234;-75
2023/10/04 08:08:26;;;;;;;14.07;4.20;;;;;;;13.38;85.04;101791.00;5036556;28;20241;-74
2023/10/04 08:10:55;;;;;;;8.43;3.70;;;;;;;13.41;83.84;101796.06;5037149;28;20214;-75
2023/10/04 08:13:24;;;;;;;8.73;3.87;;;;;;;13.45;83.68;101780.47;5036739;28;20779;-75
2023/10/04 08:15:53;;;;;;;10.83;4.10;;;;;;;13.52;83.97;101793.16;5037006;28;20242;-75
2023/10/04 08:18:24;;;;;;;12.10;3.97;;;;;;;13.57;84.06;101796.22;5036571;28;20209;-76
2023/10/04 08:20:52;;;;;;;12.10;4.10;;;;;;;13.62;83.76;101788.53;5036883;28;20195;-76
2023/10/04 08:23:21;;;;;;;9.20;3.43;;;;;;;13.64;84.24;101786.53;5036357;28;20214;-75
2023/10/04 08:25:50;;;;;;;12.47;3.83;;;;;;;13.68;83.69;101785.22;5036734;28;20289;-75
2023/10/04 08:28:19;;;;;;;8.43;4.13;;;;;;;13.76;83.01;101772.84;5036395;28;20210;-75
2023/10/04 08:30:51;;;;;;;12.70;3.93;;;;;;;13.78;83.73;101786.97;5036652;28;20206;-75
2023/10/04 08:33:31;;;;;;;11.07;3.87;;;;;;;13.81;83.30;101792.03;5036443;28;20214;-75
2023/10/04 08:36:03;;;;;;;12.17;3.97;;;;;;;13.87;83.35;101803.03;5036805;28;20206;-75
2023/10/04 08:38:32;;;;;;;11.00;4.17;;;;;;;13.95;82.70;101804.94;5036555;28;20269;-75
2023/10/04 08:41:01;;;;;;;9.30;4.03;;;;;;;13.98;82.04;101799.25;5036448;28;20234;-75
2023/10/04 08:43:31;;;;;;;10.97;3.90;;;;;;;14.09;81.76;101797.16;5036332;28;20222;-76
2023/10/04 08:46:00;;;;;;;10.87;3.80;;;;;;;14.10;81.41;101803.41;5036052;28;20864;-76
2023/10/04 08:48:30;;;;;;;9.20;3.50;;;;;;;14.16;81.16;101797.38;5036261;28;20218;-76
2023/10/04 08:51:09;;;;;;;8.67;4.07;;;;;;;14.25;81.53;101798.28;5035998;28;20735;-76
2023/10/04 08:53:48;;;;;;;15.90;4.30;;;;;;;14.28;80.53;101804.16;5036076;28;20320;-75
2023/10/04 08:56:18;;;;;;;16.77;4.50;;;;;;;14.40;80.46;101800.25;5036216;28;20202;-75
2023/10/04 08:58:48;;;;;;;11.93;3.60;;;;;;;14.38;79.66;101796.88;5036392;28;20269;-75
2023/10/04 09:01:19;;;;;;;9.87;3.87;;;;;;;14.44;79.95;101795.38;5035785;28;20640;-75
2023/10/04 09:03:51;;;;;;;9.80;3.67;;;;;;;14.54;79.87;101788.88;5035998;28;20229;-75
2023/10/04 09:06:20;;;;;;;8.60;3.83;;;;;;;14.65;79.14;101788.59;5036070;28;20191;-76
2023/10/04 09:08:49;;;;;;;10.17;4.80;;;;;;;14.79;78.84;101795.25;5035911;28;20210;-76
2023/10/04 09:11:18;;;;;;;17.80;4.43;;;;;;;14.79;78.20;101791.69;5035597;28;20664;-76
2023/10/04 09:13:49;;;;;;;9.90;3.93;;;;;;;14.79;77.21;101794.41;5035740;28;20226;-76
2023/10/04 09:16:28;;;;;;;9.33;3.70;;;;;;;14.81;76.93;101781.59;5035506;28;20619;-75
2023/10/04 09:19:08;;;;;;;10.93;3.70;;;;;;;14.89;77.99;101781.63;5034515;28;20190;-75
2023/10/04 09:21:38;;;;;;;9.80;4.40;;;;;;;14.87;77.80;101786.31;5035737;28;20198;-75
2023/10/04 09:24:09;;;;;;;12.23;4.40;;;;;;;14.91;77.38;101790.38;5035288;28;20285;-76
2023/10/04 09:26:39;;;;;;;10.90;4.27;;;;;;;14.89;78.53;101789.72;5035681;28;20191;-76
2023/10/04 09:29:07;;;;;;;13.07;4.73;;;;;;;14.93;78.53;101785.69;5035599;28;20394;-75
2023/10/04 09:31:50;;;;;;;12.40;4.53;;;;;;;14.89;78.54;101801.34;5035526;28;20210;-75
2023/10/04 09:34:22;;;;;;;10.63;4.97;;;;;;;14.91;77.70;101803.88;5035104;28;20811;-75
2023/10/04 09:36:52;;;;;;;8.87;4.50;;;;;;;14.97;76.71;101797.81;5035159;28;20195;-75
2023/10/04 09:39:27;;;;;;;8.43;4.27;;;;;;;14.93;76.59;101801.88;5035313;28;20215;-75
2023/10/04 09:41:57;;;;;;;11.43;4.60;;;;;;;14.86;77.30;101811.63;5035069;28;20728;-75
2023/10/04 09:44:27;;;;;;;9.53;4.20;;;;;;;14.79;77.62;101815.97;5034961;28;20265;-75
2023/10/04 09:46:57;;;;;;;8.97;4.30;;;;;;;14.72;77.20;101813.06;5035474;28;20246;-76
2023/10/04 09:49:31;;;;;;;11.10;4.67;;;;;;;14.66;76.98;101822.63;5034913;28;20278;-76
2023/10/04 09:52:01;;;;;;;13.53;4.57;;;;;;;14.77;76.11;101823.34;5035215;28;20264;-75
2023/10/04 09:54:30;;;;;;;11.63;4.10;;;;;;;14.95;74.66;101835.75;5034587;28;20317;-76
2023/10/04 09:57:00;;;;;;;7.90;3.40;;;;;;;15.16;74.48;101827.22;5034959;28;20298;-75
2023/10/04 09:59:30;;;;;;;10.47;4.37;;;;;;;15.09;73.35;101835.13;5034594;28;20695;-75
2023/10/04 10:01:59;;;;;;;9.20;3.97;;;;;;;15.08;74.18;101837.97;5034939;28;20210;-75
2023/10/04 10:04:30;;;;;;;9.03;4.40;;;;;;;15.03;73.82;101834.94;5034503;28;20277;-75
2023/10/04 10:07:09;;;;;;;8.63;3.67;;;;;;;15.00;73.49;101841.47;5035193;28;20218;-75
2023/10/04 10:09:51;;;;;;;7.43;3.90;;;;;;;15.06;73.08;101835.47;5034807;28;20190;-75
2023/10/04 10:12:32;;;;;;;9.40;3.90;;;;;;;15.18;73.07;101833.28;5034789;28;20195;-75
2023/10/04 10:15:01;;;;;;;9.40;3.90;;;;;;;15.31;73.36;101839.06;5034590;28;20262;-75
2023/10/04 10:17:30;;;;;;;12.63;4.57;;;;;;;15.50;74.02;101846.91;5034636;28;20213;-75
2023/10/04 10:20:04;;;;;;;11.27;4.13;;;;;;;15.44;72.34;101849.41;5034329;28;20646;-75
2023/10/04 10:22:32;;;;;;;12.33;4.20;;;;;;;15.46;72.38;101840.13;5034525;28;20199;-75
2023/10/04 10:25:14;;;;;;;12.43;4.60;;;;;;;15.55;71.68;101839.16;5034037;28;20235;-75
2023/10/04 10:27:43;;;;;;;9.70;4.20;;;;;;;15.68;71.06;101834.09;5034383;28;20195;-75
2023/10/04 10:30:13;;;;;;;10.27;4.00;;;;;;;15.64;71.45;101835.47;5033446;28;20206;-74
2023/10/04 10:32:53;;;;;;;12.83;4.33;;;;;;;15.54;70.32;101842.88;5034002;28;20242;-75
2023/10/04 10:35:57;;;;;;;8.20;4.00;;;;;;;15.46;70.79;101840.13;5033810;28;20649;-75
2023/10/04 10:38:45;;;;;;;13.13;4.40;;;;;;;15.42;69.70;101832.50;5034068;28;20559;-75
2023/10/04 10:41:57;;;;;;;7.83;4.50;;;;;;;15.43;69.72;101837.75;5033642;28;20646;-75
2023/10/04 10:44:33;;;;;;;13.83;4.77;;;;;;;15.54;69.98;101834.78;5034123;28;20223;-75
2023/10/04 10:47:12;;;;;;;10.07;4.47;;;;;;;15.69;71.05;101841.19;5033864;28;20281;-75
2023/10/04 10:49:54;;;;;;;8.83;4.27;;;;;;;15.85;69.71;101840.38;5034092;28;20195;-74
2023/10/04 10:52:26;;;;;;;8.17;3.93;;;;;;;15.81;71.41;101835.47;5034088;28;20249;-74
2023/10/04 10:54:55;;;;;;;8.07;4.20;;;;;;;15.80;70.81;101844.59;5033901;28;20276;-74
2023/10/04 10:57:25;;;;;;;9.13;4.80;;;;;;;15.97;68.71;101824.69;5036108;28;20223;-74
2023/10/04 10:59:56;;;;;;;8.17;4.10;;;;;;;16.10;67.83;101836.66;5036861;28;20207;-74
2023/10/04 11:02:25;;;;;;;10.37;4.07;;;;;;;16.10;66.94;101836.66;5037904;28;20191;-74
2023/10/04 11:04:55;;;;;;;9.13;4.73;;;;;;;16.07;66.38;101836.16;5037765;28;20276;-74
2023/10/04 11:07:26;;;;;;;9.47;4.30;;;;;;;16.25;67.07;101836.81;5037062;28;20218;-75
2023/10/04 11:09:56;;;;;;;12.23;4.37;;;;;;;16.22;68.19;101834.47;5037163;28;20719;-74
2023/10/04 11:12:25;;;;;;;8.97;4.13;;;;;;;16.22;67.36;101834.47;5033997;28;20211;-74
2023/10/04 11:14:54;;;;;;;10.13;4.40;;;;;;;16.22;66.85;101839.88;5033712;28;20288;-75
2023/10/04 11:17:23;;;;;;;10.90;4.47;;;;;;;16.12;67.29;101850.00;5033495;28;20239;-75
2023/10/04 11:19:51;;;;;;;9.97;4.20;;;;;;;16.06;66.66;101842.59;5033553;28;20206;-75
2023/10/04 11:22:20;;;;;;;10.87;4.77;;;;;;;16.00;66.43;101848.63;5033555;28;20260;-75
2023/10/04 11:24:51;;;;;;;9.83;4.47;;;;;;;16.00;67.49;101835.13;5033162;28;20231;-74
2023/10/04 11:27:23;;;;;;;8.43;4.20;;;;;;;16.02;66.03;101833.13;5033271;28;20646;-74
2023/10/04 11:29:53;;;;;;;8.63;4.00;;;;;;;16.01;65.73;101824.19;5033434;28;20249;-75
2023/10/04 11:32:22;;;;;;;8.47;4.13;;;;;;;16.14;66.22;101831.75;5033154;28;20648;-74
2023/10/04 11:34:51;;;;;;;10.27;4.33;;;;;;;16.16;65.82;101816.25;5033268;28;20238;-74
2023/10/04 11:37:20;;;;;;;13.37;4.73;;;;;;;16.36;66.13;101814.84;5033125;28;20756;-74